createdAt,value
2024-02-29T00:04:17.039Z,101157.05
2024-02-29T00:08:06.980Z,101161.27
2024-02-29T00:11:47.445Z,101159.56
2024-02-29T00:15:35.177Z,101170.33
2024-02-29T00:19:26.640Z,101174.67
2024-02-29T00:23:14.503Z,101172.27
2024-02-29T00:31:20.496Z,101182.69
2024-02-29T00:39:31.786Z,101186.69
2024-02-29T00:47:43.175Z,101197.06
2024-02-29T01:00:20.580Z,101210.71
2024-02-29T01:08:25.658Z,101207.45
2024-02-29T01:16:31.854Z,101216.99
2024-02-29T01:24:32.529Z,101224.97
2024-02-29T01:45:29.809Z,101228.81
2024-02-29T01:49:03.123Z,101229.51
2024-02-29T01:52:52.316Z,101231.05
2024-02-29T02:00:26.109Z,101235.73
2024-02-29T02:04:09.586Z,101242.84
2024-02-29T02:07:50.858Z,101247.33
2024-02-29T02:20:00.555Z,101258.76
2024-02-29T02:28:12.861Z,101265.67
2024-02-29T02:32:01.907Z,101263.26
2024-02-29T02:35:53.824Z,101269.81
2024-02-29T02:39:44.876Z,101270.34
2024-02-29T02:43:32.721Z,101273.80
2024-02-29T02:47:36.347Z,101271.90
2024-02-29T02:55:51.428Z,101280.72
2024-02-29T02:59:36.341Z,101286.61
2024-02-29T03:03:29.320Z,101292.49
2024-02-29T03:07:21.181Z,101293.52
2024-02-29T03:11:10.320Z,101291.45
2024-02-29T03:15:03.122Z,101294.54
2024-02-29T03:18:51.195Z,101296.63
2024-02-29T03:22:39.119Z,101293.50
2024-02-29T03:26:29.962Z,101295.23
2024-02-29T03:30:11.962Z,101297.13
2024-02-29T03:33:52.787Z,101299.89
2024-02-29T03:37:32.949Z,101304.73
2024-02-29T03:41:20.894Z,101298.68
2024-02-29T03:52:54.282Z,101304.20
2024-02-29T04:01:00.941Z,101303.52
2024-02-29T04:04:52.780Z,101308.70
2024-02-29T04:08:55.820Z,101311.98
2024-02-29T04:12:44.727Z,101316.98
2024-02-29T04:16:32.589Z,101321.66
2024-02-29T04:20:24.204Z,101320.27
2024-02-29T04:24:27.507Z,101314.38
2024-02-29T04:28:24.549Z,101312.48
2024-02-29T04:44:18.092Z,101317.80
2024-02-29T04:48:06.474Z,101317.29
2024-02-29T04:52:08.505Z,101316.77
2024-02-29T05:03:56.611Z,101329.19
2024-02-29T05:07:44.578Z,101324.67
2024-02-29T05:11:39.876Z,101329.50
2024-02-29T05:15:24.777Z,101331.40
2024-02-29T05:19:11.758Z,101337.94
2024-02-29T05:23:04.457Z,101340.00
2024-02-29T05:26:53.310Z,101342.08
2024-02-29T05:30:43.876Z,101348.81
2024-02-29T05:34:29.350Z,101352.46
2024-02-29T05:38:18.060Z,101359.38
2024-02-29T05:46:23.473Z,101364.08
2024-02-29T05:50:11.484Z,101372.73
2024-02-29T05:53:35.921Z,101377.23
2024-02-29T05:57:29.161Z,101382.44
2024-02-29T06:01:20.813Z,101379.86
2024-02-29T06:04:59.003Z,101386.09
2024-02-29T06:08:50.117Z,101387.67
2024-02-29T06:12:32.994Z,101390.27
2024-02-29T06:19:56.274Z,101390.09
2024-02-29T06:27:57.656Z,101395.97
2024-02-29T06:31:50.898Z,101401.52
2024-02-29T06:39:23.305Z,101406.05
2024-02-29T06:43:08.695Z,101403.82
2024-02-29T06:47:01.923Z,101403.14
2024-02-29T06:50:53.693Z,101405.41
2024-02-29T06:54:36.364Z,101409.40
2024-02-29T06:58:29.381Z,101413.58
2024-02-29T07:02:28.273Z,101421.70
2024-02-29T07:10:07.993Z,101420.00
2024-02-29T07:14:01.893Z,101426.05
2024-02-29T07:17:42.255Z,101432.45
2024-02-29T07:21:30.302Z,101432.79
2024-02-29T07:25:22.511Z,101436.27
2024-02-29T07:29:15.455Z,101443.71
2024-02-29T07:37:19.458Z,101452.04
2024-02-29T07:41:07.793Z,101459.27
2024-02-29T07:49:03.912Z,101459.12
2024-02-29T07:52:51.857Z,101460.70
2024-02-29T07:56:44.465Z,101466.61
2024-02-29T08:00:34.297Z,101471.48
2024-02-29T08:04:27.055Z,101469.08
2024-02-29T08:08:29.277Z,101463.73
2024-02-29T08:12:23.072Z,101466.48
2024-02-29T08:16:23.387Z,101469.45
2024-02-29T08:20:12.018Z,101469.98
2024-02-29T08:23:53.383Z,101468.95
2024-02-29T08:27:59.958Z,101471.37
2024-02-29T08:31:48.868Z,101463.92
2024-02-29T08:39:49.305Z,101466.01
2024-02-29T08:43:50.592Z,101462.71
2024-02-29T08:47:42.211Z,101462.89
2024-02-29T08:51:31.965Z,101458.39
2024-02-29T08:55:22.099Z,101460.98
2024-02-29T08:59:10.540Z,101463.23
2024-02-29T09:03:16.641Z,101454.21
2024-02-29T09:07:09.779Z,101446.59
2024-02-29T09:11:05.648Z,101454.88
2024-02-29T09:19:31.914Z,101456.58
2024-02-29T09:23:24.658Z,101458.46
2024-02-29T09:27:02.218Z,101459.52
2024-02-29T09:30:55.235Z,101460.55
2024-02-29T09:34:47.917Z,101465.20
2024-02-29T09:38:55.973Z,101475.25
2024-02-29T09:42:46.057Z,101480.43
2024-02-29T09:46:48.385Z,101480.23
2024-02-29T09:50:40.834Z,101488.23
2024-02-29T09:54:33.762Z,101489.61
2024-02-29T09:58:21.825Z,101495.34
2024-02-29T10:06:42.614Z,101501.40
2024-02-29T10:10:34.519Z,101506.09
2024-02-29T10:19:04.344Z,101495.67
2024-02-29T10:22:55.038Z,101489.41
2024-02-29T10:26:49.244Z,101487.17
2024-02-29T10:30:42.630Z,101488.08
2024-02-29T10:34:36.172Z,101483.60
2024-02-29T10:38:13.886Z,101475.27
2024-02-29T10:54:54.671Z,101478.70
2024-02-29T10:58:42.633Z,101480.25
2024-02-29T11:02:30.586Z,101482.52
2024-02-29T11:06:20.194Z,101477.13
2024-02-29T11:10:08.190Z,101473.34
2024-02-29T11:14:01.862Z,101471.69
2024-02-29T11:17:42.283Z,101468.77
2024-02-29T11:21:30.028Z,101468.78
2024-02-29T11:25:17.615Z,101469.30
2024-02-29T11:33:27.550Z,101468.73
2024-02-29T11:37:33.906Z,101465.93
2024-02-29T11:41:21.967Z,101469.57
2024-02-29T11:45:13.451Z,101470.25
2024-02-29T11:49:05.957Z,101466.08
2024-02-29T11:57:04.830Z,101466.73
2024-02-29T12:00:56.055Z,101459.07
2024-02-29T12:04:43.981Z,101458.73
2024-02-29T12:08:24.153Z,101457.48
2024-02-29T12:11:55.543Z,101455.20
2024-02-29T12:24:02.679Z,101452.23
2024-02-29T12:27:50.760Z,101444.80
2024-02-29T12:31:39.379Z,101441.14
2024-02-29T12:35:44.750Z,101435.38
2024-02-29T12:43:35.177Z,101443.66
2024-02-29T12:47:29.922Z,101434.10
2024-02-29T12:51:18.956Z,101431.30
2024-02-29T12:55:09.882Z,101430.55
2024-02-29T12:59:09.872Z,101436.91
2024-02-29T13:03:11.485Z,101432.02
2024-02-29T13:07:00.537Z,101422.90
2024-02-29T13:10:49.347Z,101416.84
2024-02-29T13:14:38.301Z,101417.43
2024-02-29T13:18:28.630Z,101419.30
2024-02-29T13:22:23.145Z,101417.23
2024-02-29T13:30:16.657Z,101419.39
2024-02-29T13:34:05.966Z,101417.51
2024-02-29T13:37:59.280Z,101408.68
2024-02-29T13:41:47.345Z,101405.74
2024-02-29T13:45:36.065Z,101403.50
2024-02-29T13:49:25.062Z,101405.77
2024-02-29T13:53:11.537Z,101401.09
2024-02-29T14:01:38.625Z,101393.95
2024-02-29T14:05:29.846Z,101395.90
2024-02-29T14:09:23.457Z,101393.51
2024-02-29T14:13:14.108Z,101399.23
2024-02-29T14:17:08.212Z,101397.80
2024-02-29T14:24:50.461Z,101407.41
2024-02-29T14:40:59.024Z,101390.80
2024-02-29T14:44:57.092Z,101384.39
2024-02-29T14:53:11.408Z,101375.59
2024-02-29T14:57:00.072Z,101371.61
2024-02-29T15:00:56.516Z,101370.74
2024-02-29T15:09:01.410Z,101368.85
2024-02-29T15:12:49.518Z,101369.70
2024-02-29T15:16:41.397Z,101367.63
2024-02-29T15:20:28.136Z,101366.77
2024-02-29T15:24:28.147Z,101360.52
2024-02-29T15:28:05.516Z,101356.36
2024-02-29T15:36:17.486Z,101361.90
2024-02-29T15:40:11.309Z,101366.92
2024-02-29T15:44:00.096Z,101367.25
2024-02-29T15:47:50.345Z,101364.15
2024-02-29T15:51:38.634Z,101361.03
2024-02-29T15:55:21.613Z,101363.98
2024-02-29T15:59:13.531Z,101362.60
2024-02-29T16:03:05.350Z,101360.70
2024-02-29T16:06:57.897Z,101369.17
2024-02-29T16:19:29.753Z,101369.52
2024-02-29T16:22:53.328Z,101369.00
2024-02-29T16:26:42.330Z,101359.83
2024-02-29T16:34:40.473Z,101356.04
2024-02-29T16:38:35.411Z,101353.10
2024-02-29T16:42:26.390Z,101355.50
2024-02-29T16:46:21.390Z,101358.11
2024-02-29T16:50:14.988Z,101354.83
2024-02-29T16:54:05.077Z,101355.52
2024-02-29T16:57:54.353Z,101355.00
2024-02-29T17:01:42.324Z,101356.89
2024-02-29T17:05:13.977Z,101356.73
2024-02-29T17:13:14.126Z,101354.99
2024-02-29T17:17:05.797Z,101354.48
2024-02-29T17:20:59.742Z,101359.84
2024-02-29T17:28:57.796Z,101358.80
2024-02-29T17:32:42.754Z,101360.70
2024-02-29T17:40:33.360Z,101354.64
2024-02-29T17:52:54.580Z,101354.31
2024-02-29T17:56:44.575Z,101350.84
2024-02-29T18:00:34.440Z,101348.93
2024-02-29T18:04:03.379Z,101346.68
2024-02-29T18:07:43.667Z,101348.23
2024-02-29T18:11:43.705Z,101351.35
2024-02-29T18:15:16.317Z,101347.72
2024-02-29T18:19:07.284Z,101343.73
2024-02-29T18:23:10.437Z,101339.58
2024-02-29T18:26:57.645Z,101341.14
2024-02-29T18:34:41.441Z,101336.61
2024-02-29T18:38:41.335Z,101345.63
2024-02-29T18:42:25.490Z,101342.33
2024-02-29T18:46:08.428Z,101340.60
2024-02-29T18:49:56.407Z,101337.14
2024-02-29T18:53:46.634Z,101336.96
2024-02-29T18:57:37.837Z,101335.23
2024-02-29T19:05:55.081Z,101332.45
2024-02-29T19:13:38.651Z,101337.66
2024-02-29T19:17:26.773Z,101337.83
2024-02-29T19:28:57.999Z,101335.56
2024-02-29T19:33:04.919Z,101338.17
2024-02-29T19:37:08.309Z,101338.52
2024-02-29T19:41:11.117Z,101339.90
2024-02-29T19:53:11.530Z,101337.65
2024-02-29T19:57:06.268Z,101336.09
2024-02-29T20:08:31.763Z,101329.69
2024-02-29T20:12:20.637Z,101326.39
2024-02-29T20:16:12.310Z,101328.99
2024-02-29T20:20:15.723Z,101328.64
2024-02-29T20:24:08.274Z,101328.83
2024-02-29T20:28:00.753Z,101330.90
2024-02-29T20:31:52.768Z,101335.56
2024-02-29T20:35:40.661Z,101333.14
2024-02-29T20:39:20.450Z,101328.12
2024-02-29T20:47:45.683Z,101331.41
2024-02-29T20:51:35.630Z,101335.05
2024-02-29T20:55:16.252Z,101332.96
2024-02-29T20:58:32.822Z,101337.65
2024-02-29T21:02:04.831Z,101338.69
2024-02-29T21:05:56.210Z,101334.70
2024-02-29T21:10:01.902Z,101330.37
2024-02-29T21:13:40.240Z,101328.30
2024-02-29T21:21:40.248Z,101331.59
2024-02-29T21:25:23.954Z,101323.62
2024-02-29T21:33:27.200Z,101317.91
2024-02-29T21:37:25.227Z,101315.65
2024-02-29T21:41:13.837Z,101310.29
2024-02-29T21:45:00.695Z,101305.62
2024-02-29T21:48:28.335Z,101308.71
2024-02-29T21:52:28.445Z,101305.60
2024-02-29T21:56:16.472Z,101299.19
2024-02-29T21:59:52.638Z,101298.84
2024-02-29T22:03:40.976Z,101296.41
2024-02-29T22:07:28.957Z,101292.58
2024-02-29T22:11:20.502Z,101286.52
2024-02-29T22:14:54.079Z,101285.30
2024-02-29T22:18:25.586Z,101282.17
2024-02-29T22:22:12.409Z,101281.48
2024-02-29T22:25:50.871Z,101267.11
2024-02-29T22:29:36.193Z,101265.02
2024-02-29T22:33:20.357Z,101266.60
2024-02-29T22:37:04.527Z,101255.52
2024-02-29T22:40:52.695Z,101252.25
2024-02-29T22:43:41.219Z,101252.59
2024-02-29T22:47:29.158Z,101253.48
2024-02-29T22:51:19.292Z,101248.64
2024-02-29T22:55:07.320Z,101249.70
2024-02-29T22:58:57.954Z,101243.13
2024-02-29T23:06:53.673Z,101240.53
2024-02-29T23:10:45.707Z,101234.30
2024-02-29T23:18:51.667Z,101229.81
2024-02-29T23:22:24.343Z,101228.08
2024-02-29T23:26:02.434Z,101222.55
2024-02-29T23:29:35.546Z,101219.79
2024-02-29T23:33:26.622Z,101225.13
2024-02-29T23:37:14.782Z,101220.64
2024-02-29T23:44:51.531Z,101218.57
2024-02-29T23:48:31.736Z,101217.37
2024-02-29T23:52:22.711Z,101220.65
2024-02-29T23:56:18.164Z,101219.45
